Main page
METAR-TAF:

METAR-TAF

Airports :

Albert – Picardie Airport

Albert, France

latitude: 49-58-21N, longitude: 002-41-29E, elevation: 111 m

Current weather observation

The report was made 22 minutes ago, at 21:00 UTC
Wind 11 kt from the South
Temperature 20°C
Humidity 64%
Pressure 1010 hPa
Visibility 10 km or more
no clouds below 1500 m and no cumulonimbus

METAR: LFAQ 202100Z AUTO 19011KT CAVOK 20/13 Q1010

Time: 23:22 (21:22 UTC)

Forecast

The report was made 7 hours and 22 minutes ago, at 14:00 UTC
Forecast valid from 20 at 15 UTC to 20 at 24 UTC
Wind 13 kt from the South/Southwest
Visibility 10 km or more
Scattered clouds at a height of 3000 ft
Becoming
from 20 at 22 UTC to 20 at 24 UTC
Wind 15 kt from the South/Southwest with gusts up to 25 kt

TAF: LFAQ 201400Z 2015/2024 21013KT 9999 SCT030 BECMG 2022/2024 21015G25KT

Weather observations and forecasts of more than 4000 airports (METAR and TAF reports).

The available stations are represented by yellow and red dots on the map.

Hover mouse over dot to see the name of the station.

Then click to see weather observations and forecasts.

To change the map : click on the green buttons with a black cross to zoom in, on the green button with a dash to zoom out, or on the green arrows for adjacent maps.


METAR-TAF: